Impacts METAR Board INFO
IDs:

KDTW - Detroit Metro/Wayne, MI, US

Updated at: 2212 UTC 21 Jan 2018
Potential Impact None Slight Moderate High
Time21/10Z 21/11Z 21/12Z 21/13Z 21/14Z 21/15Z 21/16Z 21/17Z 21/18Z 21/19Z 21/20Z 21/21Z 21/22Z
VIS4 3 1.5 0.13 0.06 0.25 0.25 1.25 1.5 1.5 1.5 1.5 0.25
CIG27 25 3 2 2 2 2 3 4 5 6 6 3
CoverOVCOVCOVCOVCOVCOVCOVCOVCOVCOVCOVCOVCOVC
FltCatMVFRMVFRLIFRLIFRLIFRLIFRLIFRLIFRLIFRIFRIFRIFRLIFR
WXBRBRBRFGFGBRBRBRBRBRBRBRBR
WDir190180180130002100000800
WSpd4 4 3 4 0 0 5 0 0 0 0 4 0
WGst-- -- -- -- -- -- -- -- -- -- -- -- --
Raw hourly METARs
KDTW 210953Z 19004KT 4SM BR OVC027 02/01 A3006 RMK AO2 SLP186 T00220011 $
KDTW 211053Z 18004KT 3SM BR FEW004 OVC025 02/02 A3007 RMK AO2 TWR VIS 4 SLP188 T00170017 $
KDTW 211153Z 18003KT 1 1/2SM BR BKN003 OVC025 02/02 A3008 RMK AO2 SFC VIS 2 1/2 SLP192 T00220017 10028 20017 53005 $
KDTW 211259Z 13004KT 1/8SM R03R/2000V2400FT FG OVC002 03/02 A3007 RMK AO2 SFC VIS 1/2 T00280022 $
KDTW 211353Z 00000KT 1/16SM R03R/2000V3500FT FG OVC002 03/02 A3006 RMK AO2 SFC VIS 1/2 SLP186 T00280022 $
KDTW 211453Z 00000KT 1/4SM R03R/4500V5000FT BR OVC002 03/02 A3007 RMK AO2 SFC VIS 1 SLP188 T00280022 55001 $
KDTW 211553Z 21005KT 1/4SM R03R/2600V3500FT BR OVC002 03/03 A3007 RMK AO2 SFC VIS 3/4 SLP190 T00280028 $
KDTW 211653Z 00000KT 1 1/4SM BR OVC003 04/03 A3006 RMK AO2 SFC VIS 1 1/2 SLP184 T00390033 $
KDTW 211753Z 00000KT 1 1/2SM BR OVC004 04/04 A3003 RMK AO2 SFC VIS 2 1/2 SLP173 T00440039 10044 20017 58016 $
KDTW 211853Z 00000KT 1 1/2SM BR OVC005 05/04 A3001 RMK AO2 SFC VIS 3 SLP166 T00500039 $
KDTW 211953Z 00000KT 1 1/2SM BR OVC006 05/04 A2999 RMK AO2 SFC VIS 3 SLP162 T00500039 $
KDTW 212053Z 08004KT 1 1/2SM BR OVC006 06/04 A3000 RMK AO2 SFC VIS 3 SLP163 T00560039 55009 $
KDTW 212153Z 00000KT 1/4SM R03R/4000VP6000FT BR OVC003 04/04 A3003 RMK AO2 SFC VIS 1 1/4 SLP173 T00440039 $